Time;durP1;ratioP1;P1;durP2;ratioP2;P2;SDS_P1;SDS_P2;PMS_P1;PMS_P2;Temp;Humidity;BMP_temperature;BMP_pressure;BME280_temperature;BME280_humidity;BME280_pressure;Samples;Min_cycle;Max_cycle;Signal;HPM_P1;HPM_P2
2021/04/30 15:49:16;;;;;;;3.60;1.23;;;;;;;;;;5048252;27;20467;-63
2021/04/30 15:51:42;;;;;;;3.55;1.20;;;;;;;;;;4914062;28;20065;-68
2021/04/30 15:54:10;;;;;;;2.45;1.20;;;;;;;;;;5088286;22;20049;-84
2021/04/30 15:56:36;;;;;;;3.15;1.10;;;;;;;;;;5040303;28;214462;-64
2021/04/30 15:59:02;;;;;;;2.83;1.17;;;;;;;;;;5009789;28;20042;-61
2021/04/30 16:01:28;;;;;;;3.47;1.20;;;;;;;;;;5007976;28;20067;-64
2021/04/30 16:03:54;;;;;;;2.72;1.17;;;;;;;;;;5030475;28;20385;-62
2021/04/30 16:06:22;;;;;;;2.88;1.05;;;;;;;;;;5029271;28;20127;-62
2021/04/30 16:08:48;;;;;;;3.63;1.30;;;;;;;;;;5037881;28;20573;-61
2021/04/30 16:11:14;;;;;;;3.03;1.30;;;;;;;;;;5034795;28;20810;-61
2021/04/30 16:13:40;;;;;;;2.90;1.33;;;;;;;;;;5033647;28;20028;-62
2021/04/30 16:16:06;;;;;;;3.20;1.30;;;;;;;;;;5031196;28;20031;-62
2021/04/30 16:18:32;;;;;;;2.97;1.42;;;;;;;;;;5032679;28;21535;-62
2021/04/30 16:20:58;;;;;;;2.55;1.30;;;;;;;;;;5036609;28;20395;-62
2021/04/30 16:23:25;;;;;;;2.47;1.40;;;;;;;;;;5032321;28;20092;-62
2021/04/30 16:25:53;;;;;;;4.40;1.48;;;;;;;;;;5035182;28;20032;-62
2021/04/30 16:28:19;;;;;;;3.22;1.42;;;;;;;;;;5037193;28;20033;-61
2021/04/30 16:30:45;;;;;;;1.40;0.90;;;;;;;;;;5034502;28;20032;-61
2021/04/30 16:33:11;;;;;;;4.72;1.20;;;;;;;;;;5034644;28;20032;-61
2021/04/30 16:35:37;;;;;;;3.25;1.30;;;;;;;;;;5034492;28;20025;-61
2021/04/30 16:38:03;;;;;;;3.58;1.48;;;;;;;;;;5034238;28;20072;-61
2021/04/30 16:42:31;;;;;;;5.80;1.85;;;;;;;;;;5022174;27;3969426;-83
2021/04/30 16:44:57;;;;;;;5.18;2.28;;;;;;;;;;5078957;27;20044;-81
2021/04/30 16:47:23;;;;;;;6.15;2.95;;;;;;;;;;5060936;28;20043;-84
2021/04/30 16:49:49;;;;;;;5.40;2.88;;;;;;;;;;5038200;28;20094;-84
2021/04/30 16:52:16;;;;;;;8.93;2.58;;;;;;;;;;5106481;28;20091;-84
2021/04/30 16:54:42;;;;;;;4.63;2.50;;;;;;;;;;5039545;28;20117;-85
2021/04/30 16:57:09;;;;;;;3.92;2.50;;;;;;;;;;4969482;28;97811;-84
2021/04/30 16:59:35;;;;;;;4.03;2.28;;;;;;;;;;5065548;28;20042;-83
2021/04/30 17:02:01;;;;;;;4.47;2.17;;;;;;;;;;5085534;28;20071;-82
2021/04/30 17:04:27;;;;;;;3.17;1.40;;;;;;;;;;5101204;28;20028;-80
2021/04/30 17:06:54;;;;;;;2.15;1.33;;;;;;;;;;5103061;28;20048;-81
2021/04/30 17:09:20;;;;;;;2.72;1.48;;;;;;;;;;5101778;28;20058;-81
2021/04/30 17:11:46;;;;;;;4.45;1.65;;;;;;;;;;5100564;28;20028;-81
2021/04/30 17:14:13;;;;;;;6.53;1.35;;;;;;;;;;5099442;28;20024;-81
2021/04/30 17:16:39;;;;;;;3.55;1.63;;;;;;;;;;5100247;28;20024;-81
2021/04/30 17:19:05;;;;;;;2.63;1.35;;;;;;;;;;5077705;28;20035;-81
2021/04/30 17:21:34;;;;;;;5.25;1.35;;;;;;;;;;5084486;28;20154;-83
2021/04/30 17:24:03;;;;;;;3.75;1.40;;;;;;;;;;5097308;28;20024;-82
2021/04/30 17:26:29;;;;;;;1.88;1.20;;;;;;;;;;5100474;28;20024;-82
2021/04/30 17:28:56;;;;;;;2.10;1.40;;;;;;;;;;5095118;28;20587;-81
2021/04/30 17:31:22;;;;;;;3.78;1.42;;;;;;;;;;5098867;28;20094;-77
2021/04/30 17:33:48;;;;;;;2.63;1.60;;;;;;;;;;5099712;28;20028;-80
2021/04/30 17:36:14;;;;;;;3.35;1.35;;;;;;;;;;5099770;28;20028;-78
2021/04/30 17:38:40;;;;;;;2.95;1.30;;;;;;;;;;5095911;28;20031;-77
2021/04/30 17:41:07;;;;;;;4.68;1.40;;;;;;;;;;5098975;28;20151;-77
2021/04/30 17:43:33;;;;;;;5.30;1.40;;;;;;;;;;5079425;28;20081;-77
2021/04/30 17:45:59;;;;;;;3.38;1.30;;;;;;;;;;5098089;28;20457;-78
2021/04/30 17:48:26;;;;;;;4.20;1.58;;;;;;;;;;5097645;28;20054;-78
2021/04/30 17:50:53;;;;;;;2.35;1.40;;;;;;;;;;5045525;28;70473;-76
2021/04/30 17:54:40;;;;;;;6.25;1.42;;;;;;;;;;4931156;28;201206;-77
2021/04/30 17:57:25;;;;;;;3.50;1.55;;;;;;;;;;4969590;28;135044;-77
2021/04/30 18:00:28;;;;;;;2.63;1.38;;;;;;;;;;5094050;27;21013;-78
2021/04/30 18:03:13;;;;;;;3.38;1.60;;;;;;;;;;5059471;27;20607;-79
2021/04/30 18:05:58;;;;;;;3.15;1.50;;;;;;;;;;5061883;28;20039;-79
2021/04/30 18:08:43;;;;;;;4.78;1.33;;;;;;;;;;5057070;28;20075;-79
2021/04/30 18:11:28;;;;;;;2.83;1.42;;;;;;;;;;5057652;28;20091;-80
2021/04/30 18:14:13;;;;;;;3.78;1.63;;;;;;;;;;5059312;28;20495;-79
2021/04/30 18:16:57;;;;;;;2.92;1.30;;;;;;;;;;5055115;28;20052;-80
2021/04/30 18:19:42;;;;;;;3.70;1.40;;;;;;;;;;5057775;28;20056;-79
2021/04/30 18:22:27;;;;;;;3.28;1.27;;;;;;;;;;5057915;28;20035;-80
2021/04/30 18:25:12;;;;;;;4.65;1.42;;;;;;;;;;5054719;28;20130;-79
2021/04/30 18:28:01;;;;;;;3.30;1.40;;;;;;;;;;5057096;28;20040;-79
2021/04/30 18:30:45;;;;;;;2.50;1.23;;;;;;;;;;5053827;28;20082;-79
2021/04/30 18:33:31;;;;;;;3.85;1.30;;;;;;;;;;5058251;28;20051;-79
2021/04/30 18:36:16;;;;;;;2.47;1.23;;;;;;;;;;5055976;28;20037;-79
2021/04/30 18:39:01;;;;;;;2.33;1.25;;;;;;;;;;5057071;28;20130;-79
2021/04/30 18:41:45;;;;;;;3.92;1.40;;;;;;;;;;5055853;28;20043;-79
2021/04/30 18:44:30;;;;;;;2.20;1.35;;;;;;;;;;5055705;28;20114;-79
2021/04/30 18:47:15;;;;;;;2.50;1.40;;;;;;;;;;5057158;28;20031;-80
2021/04/30 18:51:14;;;;;;;3.35;1.30;;;;;;;;;;4995122;27;20391;-79
2021/04/30 18:53:58;;;;;;;1.83;1.15;;;;;;;;;;4937967;28;20149;-80
2021/04/30 18:56:44;;;;;;;2.40;1.38;;;;;;;;;;4986738;28;20052;-79
2021/04/30 18:59:29;;;;;;;3.10;1.70;;;;;;;;;;4965690;28;20536;-80
2021/04/30 19:02:14;;;;;;;2.20;1.50;;;;;;;;;;5037892;28;20103;-78
2021/04/30 19:05:00;;;;;;;3.05;1.48;;;;;;;;;;5015062;28;20095;-79
2021/04/30 19:07:45;;;;;;;4.32;1.35;;;;;;;;;;5026651;28;20064;-80
2021/04/30 19:10:31;;;;;;;4.55;1.50;;;;;;;;;;5037347;28;20420;-79
2021/04/30 19:13:16;;;;;;;2.35;1.30;;;;;;;;;;4922215;28;90118;-79
2021/04/30 19:16:11;;;;;;;3.20;1.55;;;;;;;;;;5046495;28;20577;-79
2021/04/30 19:18:57;;;;;;;2.95;1.45;;;;;;;;;;4964571;28;71868;-79
2021/04/30 19:21:42;;;;;;;3.03;1.65;;;;;;;;;;4983494;28;20044;-79
2021/04/30 19:24:27;;;;;;;2.05;1.23;;;;;;;;;;4984549;28;20447;-79
2021/04/30 19:27:12;;;;;;;3.97;1.38;;;;;;;;;;4987245;28;20037;-79
2021/04/30 19:31:55;;;;;;;3.25;1.23;;;;;;;;;;5018489;27;20546;-79
2021/04/30 19:34:21;;;;;;;4.30;1.50;;;;;;;;;;4999060;28;20048;-80
2021/04/30 19:36:49;;;;;;;2.25;1.25;;;;;;;;;;5022482;28;20073;-79
2021/04/30 19:39:16;;;;;;;3.45;1.50;;;;;;;;;;5018809;28;20488;-79
2021/04/30 19:41:42;;;;;;;3.95;1.60;;;;;;;;;;5021440;28;20069;-79
2021/04/30 19:44:09;;;;;;;1.90;1.55;;;;;;;;;;5021311;28;20049;-79
2021/04/30 19:46:35;;;;;;;2.67;1.40;;;;;;;;;;5020461;28;20053;-78
2021/04/30 19:49:02;;;;;;;2.35;1.52;;;;;;;;;;5019055;28;20538;-79
2021/04/30 19:51:28;;;;;;;2.50;1.40;;;;;;;;;;5021449;28;20504;-79
2021/04/30 19:53:55;;;;;;;3.33;1.50;;;;;;;;;;5020370;28;20072;-79
2021/04/30 19:56:21;;;;;;;2.47;1.45;;;;;;;;;;5020889;28;20074;-78
2021/04/30 19:58:48;;;;;;;3.78;1.65;;;;;;;;;;5021017;28;20481;-79
2021/04/30 20:01:14;;;;;;;3.45;1.60;;;;;;;;;;5017259;28;20061;-79
2021/04/30 20:03:41;;;;;;;5.05;1.80;;;;;;;;;;5021002;28;20034;-79
2021/04/30 20:06:07;;;;;;;3.67;1.70;;;;;;;;;;4996621;28;79335;-79
2021/04/30 20:08:34;;;;;;;3.78;1.60;;;;;;;;;;5021223;28;20065;-81
2021/04/30 20:11:01;;;;;;;3.47;1.80;;;;;;;;;;5020127;28;20073;-79
2021/04/30 20:13:27;;;;;;;2.53;1.60;;;;;;;;;;5002460;28;20065;-79
2021/04/30 20:15:53;;;;;;;2.92;1.67;;;;;;;;;;5024050;28;20547;-79
2021/04/30 20:18:21;;;;;;;4.47;1.85;;;;;;;;;;5018845;28;20119;-81
2021/04/30 20:20:47;;;;;;;3.72;1.80;;;;;;;;;;5020302;28;20061;-79
2021/04/30 20:23:13;;;;;;;2.85;1.73;;;;;;;;;;5018976;28;20080;-79
2021/04/30 20:25:40;;;;;;;2.88;1.50;;;;;;;;;;5021535;28;20076;-79
2021/04/30 20:28:07;;;;;;;2.53;1.60;;;;;;;;;;5017088;28;20465;-78
2021/04/30 20:30:33;;;;;;;2.53;1.42;;;;;;;;;;5015935;28;20076;-78
2021/04/30 20:33:00;;;;;;;2.92;1.60;;;;;;;;;;5019048;28;20069;-79
2021/04/30 20:35:27;;;;;;;2.65;1.80;;;;;;;;;;5017106;28;20045;-79
2021/04/30 20:37:54;;;;;;;2.97;1.60;;;;;;;;;;5017287;28;20148;-79
2021/04/30 20:40:20;;;;;;;3.65;1.80;;;;;;;;;;5017593;28;20855;-78
2021/04/30 20:42:48;;;;;;;3.70;1.95;;;;;;;;;;5002581;28;20579;-79
2021/04/30 20:45:18;;;;;;;2.50;1.77;;;;;;;;;;5012002;28;20409;-77
2021/04/30 20:47:45;;;;;;;3.70;1.83;;;;;;;;;;5005107;28;20062;-78
2021/04/30 20:50:11;;;;;;;2.88;1.55;;;;;;;;;;5004569;28;20123;-72
2021/04/30 20:52:38;;;;;;;2.80;1.55;;;;;;;;;;5005716;28;20058;-80
2021/04/30 20:55:06;;;;;;;3.70;2.00;;;;;;;;;;5004914;28;20061;-77
2021/04/30 20:57:33;;;;;;;2.67;1.45;;;;;;;;;;5004338;28;20879;-76
2021/04/30 20:59:59;;;;;;;3.40;1.77;;;;;;;;;;5004716;28;20053;-74
2021/04/30 21:02:26;;;;;;;3.83;1.65;;;;;;;;;;5003307;28;20058;-74
2021/04/30 21:04:52;;;;;;;2.47;1.70;;;;;;;;;;5004211;28;20062;-74
2021/04/30 21:07:19;;;;;;;2.10;1.55;;;;;;;;;;5001678;28;20057;-73
2021/04/30 21:09:47;;;;;;;5.65;1.60;;;;;;;;;;5004050;28;20077;-73
2021/04/30 21:14:40;;;;;;;3.55;1.75;;;;;;;;;;5005028;28;20104;-74
2021/04/30 21:17:08;;;;;;;3.30;1.92;;;;;;;;;;5003885;28;20062;-74
2021/04/30 21:19:36;;;;;;;2.85;1.70;;;;;;;;;;5004006;28;20057;-74
2021/04/30 21:22:03;;;;;;;2.70;1.67;;;;;;;;;;5003892;28;20462;-74
2021/04/30 21:24:30;;;;;;;3.22;1.77;;;;;;;;;;5003189;28;20519;-74
2021/04/30 21:27:00;;;;;;;3.42;1.65;;;;;;;;;;5004828;28;20065;-74
2021/04/30 21:29:27;;;;;;;3.63;1.85;;;;;;;;;;5002186;28;20135;-74
2021/04/30 21:31:54;;;;;;;2.30;1.55;;;;;;;;;;5002744;28;20108;-74
2021/04/30 21:34:20;;;;;;;2.55;1.48;;;;;;;;;;5003317;28;20545;-73
2021/04/30 21:36:47;;;;;;;3.13;1.90;;;;;;;;;;5003655;28;20073;-73
2021/04/30 21:39:14;;;;;;;2.75;1.73;;;;;;;;;;4984020;28;20139;-74
2021/04/30 21:41:40;;;;;;;3.08;1.70;;;;;;;;;;5003846;28;20077;-75
2021/04/30 21:44:07;;;;;;;2.78;1.40;;;;;;;;;;5002869;28;20374;-74
2021/04/30 21:46:34;;;;;;;2.53;1.50;;;;;;;;;;5031228;28;20057;-76
2021/04/30 21:49:00;;;;;;;2.92;1.70;;;;;;;;;;5004961;28;20050;-75
2021/04/30 21:51:27;;;;;;;3.75;1.83;;;;;;;;;;5002627;28;20046;-74
2021/04/30 21:53:53;;;;;;;2.70;1.73;;;;;;;;;;5001350;28;20049;-74
2021/04/30 21:56:21;;;;;;;3.33;1.67;;;;;;;;;;5002559;28;20073;-74
2021/04/30 21:58:47;;;;;;;2.75;1.35;;;;;;;;;;5004412;28;20073;-75
2021/04/30 22:01:30;;;;;;;2.70;1.70;;;;;;;;;;4999030;28;20087;-74
2021/04/30 22:03:57;;;;;;;2.90;1.60;;;;;;;;;;5000439;28;20054;-74
2021/04/30 22:06:24;;;;;;;3.35;1.48;;;;;;;;;;5002981;28;20657;-74
2021/04/30 22:08:50;;;;;;;2.50;1.50;;;;;;;;;;5017525;28;20092;-74
2021/04/30 22:11:16;;;;;;;2.85;1.60;;;;;;;;;;5002740;28;20077;-75
2021/04/30 22:13:43;;;;;;;2.90;1.50;;;;;;;;;;5004192;28;20434;-75
2021/04/30 22:16:10;;;;;;;2.53;1.48;;;;;;;;;;4999927;28;20073;-74
2021/04/30 22:18:37;;;;;;;3.17;1.60;;;;;;;;;;5003539;28;20068;-75
2021/04/30 22:21:03;;;;;;;2.97;1.75;;;;;;;;;;5003566;28;20057;-75
2021/04/30 22:23:32;;;;;;;5.47;1.80;;;;;;;;;;5006386;28;20456;-74
2021/04/30 22:25:58;;;;;;;3.30;1.60;;;;;;;;;;5001565;28;20362;-74
2021/04/30 22:28:25;;;;;;;3.17;1.63;;;;;;;;;;5001275;28;20107;-74
2021/04/30 22:30:51;;;;;;;3.15;1.83;;;;;;;;;;5001382;28;20120;-74
2021/04/30 22:33:18;;;;;;;2.20;1.50;;;;;;;;;;5001633;28;20111;-74
2021/04/30 22:35:44;;;;;;;2.30;1.50;;;;;;;;;;5001310;28;20528;-75
2021/04/30 22:38:10;;;;;;;2.58;1.42;;;;;;;;;;5002415;28;20092;-75
2021/04/30 22:40:37;;;;;;;4.75;1.70;;;;;;;;;;4999494;28;20252;-75
2021/04/30 22:43:03;;;;;;;2.33;1.50;;;;;;;;;;5003366;28;20057;-74
2021/04/30 22:45:30;;;;;;;3.10;1.60;;;;;;;;;;4997593;28;20061;-74
2021/04/30 22:47:56;;;;;;;2.75;1.60;;;;;;;;;;5002805;28;20065;-74
2021/04/30 22:50:22;;;;;;;2.53;1.60;;;;;;;;;;5001761;28;20779;-74
2021/04/30 22:52:49;;;;;;;3.60;1.48;;;;;;;;;;5001045;28;20073;-73
2021/04/30 22:55:16;;;;;;;2.58;1.65;;;;;;;;;;5001244;28;20061;-74
2021/04/30 22:57:42;;;;;;;3.90;1.70;;;;;;;;;;5002994;28;20129;-74
2021/04/30 23:00:09;;;;;;;3.13;1.60;;;;;;;;;;5016923;28;20062;-74
2021/04/30 23:02:36;;;;;;;3.47;1.42;;;;;;;;;;5030391;28;20061;-74
2021/04/30 23:05:06;;;;;;;2.53;1.42;;;;;;;;;;5000560;28;20440;-74
2021/04/30 23:07:32;;;;;;;3.10;1.73;;;;;;;;;;5000362;28;20061;-74
2021/04/30 23:09:59;;;;;;;2.55;1.70;;;;;;;;;;5002219;28;20520;-74
2021/04/30 23:12:25;;;;;;;2.92;1.70;;;;;;;;;;5000911;28;20068;-74
2021/04/30 23:14:52;;;;;;;2.42;1.70;;;;;;;;;;5002121;28;20465;-74
2021/04/30 23:17:18;;;;;;;3.13;1.80;;;;;;;;;;5000226;28;20065;-73
2021/04/30 23:19:44;;;;;;;2.45;1.70;;;;;;;;;;5002201;28;20058;-75
2021/04/30 23:22:11;;;;;;;4.47;1.83;;;;;;;;;;5001599;28;20653;-75
2021/04/30 23:24:37;;;;;;;2.20;1.52;;;;;;;;;;4992381;28;20129;-75
2021/04/30 23:27:04;;;;;;;4.93;2.00;;;;;;;;;;5011430;28;20065;-75
2021/04/30 23:29:30;;;;;;;3.50;1.95;;;;;;;;;;5000973;28;20068;-75
2021/04/30 23:31:57;;;;;;;3.42;1.63;;;;;;;;;;5001730;28;20517;-74
2021/04/30 23:34:23;;;;;;;3.50;1.60;;;;;;;;;;5002360;28;20398;-74
2021/04/30 23:36:51;;;;;;;2.95;1.88;;;;;;;;;;5000783;28;20065;-74
2021/04/30 23:39:21;;;;;;;3.92;1.88;;;;;;;;;;4991553;28;20617;-75
2021/04/30 23:41:48;;;;;;;3.58;2.03;;;;;;;;;;5002913;28;20049;-76
2021/04/30 23:44:15;;;;;;;3.58;1.70;;;;;;;;;;4993641;28;20068;-77
2021/04/30 23:46:42;;;;;;;3.70;1.90;;;;;;;;;;5003255;28;20045;-76
2021/04/30 23:49:11;;;;;;;3.65;1.90;;;;;;;;;;4983973;28;20069;-75
2021/04/30 23:51:41;;;;;;;2.78;1.83;;;;;;;;;;4999266;28;20581;-76
2021/04/30 23:54:08;;;;;;;2.85;1.55;;;;;;;;;;5014514;28;20030;-75
2021/04/30 23:56:34;;;;;;;3.80;1.88;;;;;;;;;;5002053;28;20054;-75
2021/04/30 23:59:01;;;;;;;3.05;2.00;;;;;;;;;;5000835;28;20065;-76
